Terminal Aerodrome Forecast
Issued by NWS

Home | Current Version | Previous Version | Text Only | Print | Product List | Glossary On
Versions: 1 2 3 4 5 6 7 8 9 10 11 12 13
223
FTUS44 KBMX 120539
TAFMGM
TAF
KMGM 120539Z 1206/1306 VRB03KT P6SM SCT250
     FM120900 00000KT P6SM BKN020
      TEMPO 1210/1213 BKN015
     FM121500 28011KT P6SM SCT025 SCT250=

USA.gov is the U.S. government's official web portal to all federal, state and local government web resources and services.